Time;durP1;ratioP1;P1;durP2;ratioP2;P2;SDS_P1;SDS_P2;PMS_P1;PMS_P2;Temp;Humidity;BMP_temperature;BMP_pressure;BME280_temperature;BME280_humidity;BME280_pressure;Samples;Min_cycle;Max_cycle;Signal;HPM_P1;HPM_P2
2023/02/10 00:01:20;;;;;;;26.63;11.25;;;;;;;-5.30;67.42;103245.78;4999408;28;22482;-81
2023/02/10 00:03:46;;;;;;;31.50;11.38;;;;;;;-5.27;67.47;103268.53;4986652;28;20044;-80
2023/02/10 00:06:12;;;;;;;26.30;10.70;;;;;;;-5.53;68.59;103266.69;4998284;28;20066;-82
2023/02/10 00:08:38;;;;;;;27.08;11.20;;;;;;;-5.65;68.91;103267.50;4990767;28;20061;-83
2023/02/10 00:11:05;;;;;;;27.13;10.75;;;;;;;-5.56;69.07;103275.41;4970817;28;20042;-80
2023/02/10 00:13:33;;;;;;;31.25;11.65;;;;;;;-5.76;69.78;103275.34;5007460;28;20113;-79
2023/02/10 00:16:02;;;;;;;39.55;14.48;;;;;;;-5.73;69.82;103282.34;4980369;28;20537;-79
2023/02/10 00:18:27;;;;;;;30.13;11.00;;;;;;;-5.85;70.11;103267.44;4995589;28;20072;-78
2023/02/10 00:20:53;;;;;;;26.00;11.37;;;;;;;-5.76;69.45;103274.44;5013858;28;20050;-80
2023/02/10 00:23:19;;;;;;;27.65;10.77;;;;;;;-5.94;69.80;103264.78;4988801;28;20479;-78
2023/02/10 00:25:45;;;;;;;27.70;10.93;;;;;;;-6.10;70.31;103253.34;5002285;28;20418;-78
2023/02/10 00:28:11;;;;;;;35.28;10.75;;;;;;;-5.98;69.94;103255.16;4987778;28;20041;-78
2023/02/10 00:30:37;;;;;;;32.07;10.93;;;;;;;-5.99;70.15;103263.91;4992750;28;20050;-78
2023/02/10 00:33:04;;;;;;;27.88;10.88;;;;;;;-6.04;70.61;103248.16;4995478;28;20482;-81
2023/02/10 00:35:32;;;;;;;27.80;10.23;;;;;;;-6.12;70.43;103246.34;4975423;28;20134;-79
2023/02/10 00:37:57;;;;;;;31.10;11.68;;;;;;;-5.91;70.17;103250.78;5008352;28;20356;-81
2023/02/10 00:40:23;;;;;;;27.77;10.67;;;;;;;-6.06;70.56;103251.63;4994303;28;20041;-81
2023/02/10 00:42:49;;;;;;;29.27;11.60;;;;;;;-6.29;70.64;103213.06;5004748;28;20474;-79
2023/02/10 00:45:17;;;;;;;24.52;10.15;;;;;;;-6.19;70.70;103240.19;5004485;28;20042;-78
2023/02/10 00:47:46;;;;;;;29.40;10.57;;;;;;;-6.22;71.12;103235.81;5007054;28;20037;-80
2023/02/10 00:50:11;;;;;;;27.48;10.48;;;;;;;-6.23;70.88;103235.78;4989551;28;20042;-80
2023/02/10 00:52:38;;;;;;;28.90;11.27;;;;;;;-6.38;71.30;103233.97;5006175;28;20135;-82
2023/02/10 00:55:04;;;;;;;31.45;11.10;;;;;;;-6.28;71.07;103233.16;4997877;28;20050;-81
2023/02/10 00:57:32;;;;;;;32.65;10.95;;;;;;;-6.24;71.54;103234.06;5023305;28;20398;-82
2023/02/10 00:59:58;;;;;;;28.52;11.75;;;;;;;-6.22;70.83;103230.56;4995099;28;20490;-82
2023/02/10 01:02:24;;;;;;;28.55;10.65;;;;;;;-6.38;71.05;103211.25;5006894;28;20033;-81
2023/02/10 01:04:49;;;;;;;30.52;11.52;;;;;;;-6.40;70.54;103222.59;4968976;28;20069;-82
2023/02/10 01:07:15;;;;;;;26.13;10.60;;;;;;;-6.29;70.65;103234.03;5007473;28;20139;-81
2023/02/10 01:09:40;;;;;;;28.93;11.20;;;;;;;-6.49;71.35;103233.00;4987706;28;20026;-83
2023/02/10 01:12:07;;;;;;;31.02;10.85;;;;;;;-6.49;71.16;103204.22;5005879;28;20451;-81
2023/02/10 01:14:34;;;;;;;32.13;11.65;;;;;;;-6.52;70.95;103198.97;4988569;28;20043;-82
2023/02/10 01:17:02;;;;;;;30.25;11.18;;;;;;;-6.44;70.90;103220.81;4983255;28;20479;-81
2023/02/10 01:19:28;;;;;;;30.58;10.13;;;;;;;-6.56;71.61;103223.34;4991499;28;20038;-81
2023/02/10 01:21:54;;;;;;;24.02;9.90;;;;;;;-6.52;72.10;103225.13;5006224;28;20030;-81
2023/02/10 01:24:19;;;;;;;32.30;11.05;;;;;;;-6.57;71.92;103212.00;5003717;28;20383;-79
2023/02/10 01:26:44;;;;;;;32.63;10.63;;;;;;;-6.51;71.42;103212.03;4977027;28;20069;-82
2023/02/10 01:29:10;;;;;;;27.97;10.83;;;;;;;-6.50;71.97;103223.41;4999028;28;20754;-80
2023/02/10 01:31:36;;;;;;;19.60;9.43;;;;;;;-6.57;71.98;103226.84;5003023;28;20447;-80
2023/02/10 01:34:01;;;;;;;26.23;11.50;;;;;;;-6.67;72.20;103218.03;4995111;28;20072;-80
2023/02/10 01:36:27;;;;;;;25.88;10.95;;;;;;;-6.56;71.98;103223.34;5006654;28;20439;-82
2023/02/10 01:38:52;;;;;;;27.37;9.80;;;;;;;-6.72;72.55;103217.13;5021711;28;20041;-81
2023/02/10 01:41:20;;;;;;;29.70;11.63;;;;;;;-6.67;72.51;103220.63;5010992;28;20315;-81
2023/02/10 01:43:57;;;;;;;23.95;9.77;;;;;;;-6.60;71.83;103228.56;5001165;28;20029;-82
2023/02/10 01:46:24;;;;;;;25.90;9.73;;;;;;;-6.65;71.34;103227.66;5015387;28;20038;-77
2023/02/10 01:48:50;;;;;;;28.30;10.95;;;;;;;-6.75;72.15;103223.22;5010574;28;20115;-80
2023/02/10 01:51:15;;;;;;;27.02;10.25;;;;;;;-6.77;72.03;103216.22;4991488;28;20441;-83
2023/02/10 01:53:42;;;;;;;24.38;9.63;;;;;;;-6.81;72.02;103217.94;5011548;28;20097;-83
2023/02/10 01:56:08;;;;;;;;;;;;;;;-6.82;72.20;103229.25;4999232;28;20044;-81
2023/02/10 01:58:33;;;;;;;22.77;8.63;;;;;;;-6.84;72.26;103217.88;5010933;28;19909;-82
2023/02/10 02:01:00;;;;;;;24.55;9.30;;;;;;;-6.72;72.51;103233.72;4997252;28;20048;-81
2023/02/10 02:03:27;;;;;;;22.38;9.38;;;;;;;-6.85;72.49;103209.19;5024502;28;20495;-80
2023/02/10 02:05:53;;;;;;;28.33;10.32;;;;;;;-6.78;72.67;103222.31;4994160;28;20502;-79
2023/02/10 02:08:23;;;;;;;26.33;10.73;;;;;;;-6.74;72.18;103229.31;4993133;28;20037;-80
2023/02/10 02:10:52;;;;;;;26.67;10.18;;;;;;;-6.66;71.85;103222.41;5004497;28;20034;-80
2023/02/10 02:13:36;;;;;;;23.08;9.85;;;;;;;-6.79;72.00;103216.19;5020922;28;20037;-79
2023/02/10 02:16:04;;;;;;;22.95;9.52;;;;;;;-6.70;72.07;103221.50;5013629;28;20038;-80
2023/02/10 02:18:37;;;;;;;27.17;9.40;;;;;;;-6.62;71.97;103221.59;5011172;28;20120;-80
2023/02/10 02:21:08;;;;;;;28.27;10.02;;;;;;;-6.69;71.58;103214.53;5003490;28;20034;-80
2023/02/10 02:23:38;;;;;;;26.33;10.10;;;;;;;-6.73;71.64;103211.00;5028726;28;20121;-78
2023/02/10 02:26:14;;;;;;;28.25;10.32;;;;;;;-6.77;71.83;103204.00;5007310;28;20073;-80
2023/02/10 02:28:46;;;;;;;29.90;10.88;;;;;;;-6.78;71.94;103217.09;4996976;28;20050;-80
2023/02/10 02:31:33;;;;;;;27.70;9.88;;;;;;;-6.91;72.41;103216.09;5016753;28;20116;-79
2023/02/10 02:34:01;;;;;;;22.45;9.65;;;;;;;-6.82;72.26;103214.44;5024849;28;20068;-80
2023/02/10 02:36:35;;;;;;;25.63;9.55;;;;;;;-6.83;72.12;103214.44;4980333;28;20263;-81
2023/02/10 02:39:03;;;;;;;25.30;10.18;;;;;;;-6.94;72.28;103206.47;5011018;28;20564;-80
2023/02/10 02:41:31;;;;;;;26.17;10.20;;;;;;;-6.97;72.66;103205.59;5008373;28;20124;-80
2023/02/10 02:43:57;;;;;;;27.80;10.65;;;;;;;-7.06;72.98;103203.75;5019659;28;20570;-82
2023/02/10 02:47:02;;;;;;;23.52;10.38;;;;;;;-7.04;72.88;103199.44;5008316;28;20184;-81
2023/02/10 02:49:42;;;;;;;25.40;10.10;;;;;;;-7.04;72.84;103200.28;5011587;28;20046;-82
2023/02/10 02:52:23;;;;;;;26.35;9.60;;;;;;;-6.99;72.81;103194.25;4989479;28;20109;-81
2023/02/10 02:54:53;;;;;;;26.33;10.38;;;;;;;-6.92;72.60;103198.66;4989746;28;20041;-81
2023/02/10 02:57:31;;;;;;;25.63;10.88;;;;;;;-7.10;73.22;103202.84;5003281;28;20044;-80
2023/02/10 03:00:09;;;;;;;23.17;9.18;;;;;;;-7.09;72.63;103188.94;5014247;28;20033;-81
2023/02/10 03:02:37;;;;;;;22.67;8.95;;;;;;;-7.09;72.91;103188.06;5009974;28;20034;-81
2023/02/10 03:05:03;;;;;;;31.95;9.65;;;;;;;-7.15;72.64;103169.69;5019693;28;20030;-80
2023/02/10 03:07:28;;;;;;;22.95;9.20;;;;;;;-7.06;72.73;103185.47;5007405;28;20073;-80
2023/02/10 03:09:54;;;;;;;26.60;10.07;;;;;;;-7.02;72.61;103192.47;4994558;28;20143;-81
2023/02/10 03:12:19;;;;;;;25.65;8.40;;;;;;;-6.97;71.88;103189.91;5020567;28;20046;-81
2023/02/10 03:14:45;;;;;;;22.93;8.03;;;;;;;-6.85;71.50;103188.25;5003674;28;20075;-82
2023/02/10 03:17:12;;;;;;;28.70;9.70;;;;;;;-6.86;71.78;103188.22;5021398;28;20041;-82
2023/02/10 03:19:38;;;;;;;20.83;8.75;;;;;;;-6.94;71.38;103187.31;5010855;28;22086;-81
2023/02/10 03:22:04;;;;;;;23.90;8.98;;;;;;;-7.11;71.64;103168.84;4985125;28;20041;-81
2023/02/10 03:24:29;;;;;;;29.57;9.17;;;;;;;-7.10;71.93;103179.31;5013582;28;20033;-84
2023/02/10 03:26:55;;;;;;;21.20;8.73;;;;;;;-7.09;71.96;103170.63;4993158;28;20041;-81
2023/02/10 03:29:24;;;;;;;22.77;8.53;;;;;;;-7.14;72.08;103167.09;5016213;28;20772;-81
2023/02/10 03:31:50;;;;;;;29.40;9.48;;;;;;;-7.18;71.73;103170.53;5010285;28;20479;-82
2023/02/10 03:34:17;;;;;;;24.30;9.03;;;;;;;-7.14;71.94;103168.81;5002755;28;20088;-80
2023/02/10 03:36:43;;;;;;;21.63;8.02;;;;;;;-7.23;71.87;103161.78;5001073;28;20415;-83
2023/02/10 03:39:14;;;;;;;22.73;9.23;;;;;;;-7.17;71.98;103172.28;5018613;28;20038;-84
2023/02/10 03:41:41;;;;;;;21.70;8.35;;;;;;;-7.09;71.48;103160.16;5025182;28;20033;-82
2023/02/10 03:44:07;;;;;;;24.00;8.75;;;;;;;-7.23;71.81;103151.31;5018831;28;20037;-82
2023/02/10 03:46:32;;;;;;;21.23;8.38;;;;;;;-7.16;71.87;103163.59;5006368;28;20041;-81
2023/02/10 03:48:58;;;;;;;22.92;8.80;;;;;;;-7.15;71.71;103159.22;5024133;28;20092;-81
2023/02/10 03:51:25;;;;;;;22.87;8.10;;;;;;;-7.22;71.79;103158.28;5014143;28;20042;-84
2023/02/10 03:53:54;;;;;;;22.42;8.82;;;;;;;-7.19;71.41;103141.75;5013736;28;20362;-83
2023/02/10 03:56:22;;;;;;;21.67;8.18;;;;;;;-7.18;71.23;103144.38;4994659;28;20090;-83
2023/02/10 03:58:51;;;;;;;22.15;8.80;;;;;;;-7.27;71.66;103142.56;5006097;28;20406;-82
2023/02/10 04:01:17;;;;;;;22.20;8.93;;;;;;;-7.25;71.47;103153.03;4991489;28;20351;-82
2023/02/10 04:03:42;;;;;;;22.90;8.27;;;;;;;-7.29;71.57;103140.78;4999260;28;20029;-81
2023/02/10 04:06:10;;;;;;;25.08;8.82;;;;;;;-7.29;71.68;103136.44;5014221;28;20064;-81
2023/02/10 04:08:37;;;;;;;19.95;8.45;;;;;;;-7.22;71.78;103148.69;5008699;28;20046;-80
2023/02/10 04:11:03;;;;;;;20.10;7.95;;;;;;;-7.49;71.59;103107.53;4999761;28;20068;-80
2023/02/10 04:13:28;;;;;;;24.23;8.57;;;;;;;-7.26;71.49;103130.34;4994252;28;20073;-80
2023/02/10 04:16:05;;;;;;;21.30;8.70;;;;;;;-7.28;71.61;103139.91;5002037;28;20494;-79
2023/02/10 04:18:31;;;;;;;18.52;7.70;;;;;;;-7.15;71.30;103147.03;4994655;28;20287;-82
2023/02/10 04:20:58;;;;;;;20.63;8.55;;;;;;;-7.25;71.58;103133.00;4974630;28;20041;-81
2023/02/10 04:23:24;;;;;;;23.75;8.77;;;;;;;-7.21;71.97;103144.38;5014890;28;20041;-80
2023/02/10 04:25:50;;;;;;;25.90;9.37;;;;;;;-7.24;71.93;103139.09;4992991;28;20045;-80
2023/02/10 04:28:17;;;;;;;21.23;8.93;;;;;;;-7.20;72.00;103140.88;5004163;28;20307;-80
2023/02/10 04:30:43;;;;;;;29.10;8.82;;;;;;;-7.25;71.97;103139.97;5002039;28;20038;-82
2023/02/10 04:33:09;;;;;;;25.40;8.85;;;;;;;-7.31;71.64;103137.28;4996197;28;20065;-83
2023/02/10 04:35:34;;;;;;;24.20;8.75;;;;;;;-7.48;72.68;103138.00;4987079;28;20509;-82
2023/02/10 04:38:03;;;;;;;25.13;9.50;;;;;;;-7.37;72.24;103129.41;5005224;28;20037;-80
2023/02/10 04:40:29;;;;;;;25.98;9.13;;;;;;;-7.43;72.49;103146.75;5003355;28;20072;-81
2023/02/10 04:42:55;;;;;;;21.98;8.50;;;;;;;-7.56;72.96;103139.69;4999132;28;20025;-80
2023/02/10 04:45:21;;;;;;;19.38;7.47;;;;;;;-7.41;72.91;103146.78;4998689;28;20525;-81
2023/02/10 04:47:46;;;;;;;22.67;8.30;;;;;;;-7.55;72.77;103130.09;4996798;28;20042;-81
2023/02/10 04:50:12;;;;;;;20.58;7.20;;;;;;;-7.50;72.91;103144.09;4990385;28;20103;-81
2023/02/10 04:52:38;;;;;;;23.20;8.60;;;;;;;-7.59;72.96;103128.31;5015602;28;20044;-80
2023/02/10 04:55:04;;;;;;;18.50;7.85;;;;;;;-7.43;72.99;103154.59;5009959;28;20034;-83
2023/02/10 04:57:29;;;;;;;;;;;;;;;-7.49;73.18;103146.72;5008665;28;20425;-82
2023/02/10 04:59:56;;;;;;;24.95;7.57;;;;;;;-7.47;73.01;103142.41;5004018;28;19944;-81
2023/02/10 05:02:22;;;;;;;;;;;;;;;-7.51;73.38;103145.81;5017435;28;20104;-82
2023/02/10 05:04:47;;;;;;;17.55;7.03;;;;;;;-7.67;73.60;103128.25;5002086;28;19913;-82
2023/02/10 05:07:14;;;;;;;18.63;7.65;;;;;;;-7.76;73.64;103115.94;5015249;28;20049;-86
2023/02/10 05:09:40;;;;;;;23.77;8.65;;;;;;;-7.63;73.75;103124.81;5007892;28;20026;-85
2023/02/10 05:12:05;;;;;;;26.75;9.55;;;;;;;-7.51;73.46;103140.59;5012361;28;20431;-83
2023/02/10 05:14:32;;;;;;;23.97;9.00;;;;;;;-7.67;73.69;103109.97;4997551;28;20041;-84
2023/02/10 05:17:01;;;;;;;20.45;8.15;;;;;;;-7.35;73.43;103133.78;5013379;28;20044;-83
2023/02/10 05:19:28;;;;;;;21.92;8.68;;;;;;;-7.39;72.80;103139.84;5016809;28;20097;-86
2023/02/10 05:21:56;;;;;;;23.52;9.15;;;;;;;-7.46;72.64;103117.13;5009688;28;20045;-87
2023/02/10 05:24:22;;;;;;;27.83;9.30;;;;;;;-7.27;72.34;103134.72;4994104;28;20126;-83
2023/02/10 05:26:47;;;;;;;25.80;8.47;;;;;;;-7.23;72.40;103140.88;5010750;28;20429;-81
2023/02/10 05:29:13;;;;;;;22.53;8.80;;;;;;;-7.22;72.22;103132.16;4996513;28;20050;-81
2023/02/10 05:31:39;;;;;;;20.80;8.55;;;;;;;-7.28;72.34;103137.31;4986610;28;20029;-85
2023/02/10 05:34:05;;;;;;;24.63;10.52;;;;;;;-7.38;72.54;103132.88;4992781;28;20501;-80
2023/02/10 05:36:31;;;;;;;22.55;9.00;;;;;;;-7.20;72.46;103143.50;4997580;28;20053;-81
2023/02/10 05:41:43;;;;;;;26.00;9.90;;;;;;;-7.34;72.94;103158.19;4987268;28;20080;-82
2023/02/10 05:44:10;;;;;;;39.97;11.82;;;;;;;-7.35;72.73;103145.97;5016678;28;20042;-86
2023/02/10 05:46:38;;;;;;;25.42;10.70;;;;;;;-7.45;72.96;103145.00;5009189;28;20045;-84
2023/02/10 05:49:04;;;;;;;28.90;12.82;;;;;;;-7.43;73.15;103164.19;4983118;28;20358;-82
2023/02/10 05:51:32;;;;;;;31.20;11.80;;;;;;;-7.23;72.54;103161.78;5007608;28;20053;-82
2023/02/10 05:53:57;;;;;;;31.90;13.80;;;;;;;-7.36;72.74;103136.38;5005613;28;20462;-83
2023/02/10 05:56:24;;;;;;;31.87;12.57;;;;;;;-6.41;70.85;103144.94;5002522;28;20040;-82
2023/02/10 05:58:49;;;;;;;29.58;12.23;;;;;;;-4.90;65.43;103151.38;5006561;28;20299;-78
2023/02/10 06:01:18;;;;;;;34.47;13.07;;;;;;;-3.68;61.46;103157.16;4995325;28;20030;-83
2023/02/10 06:03:43;;;;;;;29.73;13.25;;;;;;;-2.76;58.53;103154.75;5011187;28;20049;-83
2023/02/10 06:06:09;;;;;;;29.63;12.73;;;;;;;-1.85;55.62;103151.09;5002526;28;20054;-85
2023/02/10 06:08:38;;;;;;;;;;;;;;;-0.69;51.35;103150.19;5019979;28;20033;-85
2023/02/10 06:11:04;;;;;;;28.80;12.55;;;;;;;0.00;48.89;103146.22;5011186;28;19913;-85
2023/02/10 06:13:31;;;;;;;32.67;12.85;;;;;;;1.20;46.02;103146.09;5028769;28;20041;-86
2023/02/10 06:15:58;;;;;;;38.20;13.75;;;;;;;1.94;43.63;103144.06;5000794;28;20077;-85
2023/02/10 06:18:23;;;;;;;;;;;;;;;2.13;42.53;103141.72;5009729;28;20110;-84
2023/02/10 06:20:50;;;;;;;;;;;;;;;2.82;41.50;103135.16;5015626;28;19913;-83
2023/02/10 06:23:16;;;;;;;33.08;13.13;;;;;;;3.86;39.78;103143.06;5008081;28;19913;-81
2023/02/10 06:25:43;;;;;;;49.65;16.67;;;;;;;4.77;37.54;103137.75;5015543;28;20045;-82
2023/02/10 06:28:09;;;;;;;43.35;18.00;;;;;;;4.95;36.76;103152.13;5008547;28;20068;-81
2023/02/10 06:30:35;;;;;;;47.90;20.85;;;;;;;5.74;34.36;103149.66;5013426;28;20069;-83
2023/02/10 06:33:00;;;;;;;55.58;23.20;;;;;;;5.94;33.68;103146.94;5019086;28;20048;-82
2023/02/10 06:35:26;;;;;;;52.53;21.40;;;;;;;6.09;33.07;103140.91;5023798;28;20105;-80
2023/02/10 06:37:52;;;;;;;43.28;20.05;;;;;;;5.09;34.10;103147.09;5001340;28;20044;-81
2023/02/10 06:40:17;;;;;;;42.97;17.90;;;;;;;5.09;34.09;103147.09;5012345;28;20038;-80
2023/02/10 06:42:44;;;;;;;40.92;19.92;;;;;;;6.42;32.18;103142.94;4988642;28;20124;-80
2023/02/10 06:45:10;;;;;;;36.47;18.33;;;;;;;5.81;32.60;103135.94;5023961;28;20087;-82
2023/02/10 06:47:38;;;;;;;41.50;18.92;;;;;;;6.23;32.02;103118.91;4993071;28;20164;-83
2023/02/10 06:50:03;;;;;;;39.80;17.48;;;;;;;7.15;30.72;103140.25;4994641;28;20041;-82
2023/02/10 06:52:30;;;;;;;35.30;18.10;;;;;;;5.75;32.17;103146.88;5019506;28;20044;-80
2023/02/10 06:54:55;;;;;;;41.83;18.85;;;;;;;6.37;31.46;103141.41;5007307;28;20034;-83
2023/02/10 06:57:24;;;;;;;35.33;17.33;;;;;;;6.36;31.23;103123.66;5004432;28;20037;-81
2023/02/10 06:59:52;;;;;;;34.40;18.00;;;;;;;6.48;31.36;103139.09;5010204;28;20120;-79
2023/02/10 07:02:18;;;;;;;39.75;18.05;;;;;;;7.05;30.84;103141.69;5021862;28;20474;-80
2023/02/10 07:04:43;;;;;;;39.45;17.90;;;;;;;7.86;30.18;103136.56;5013031;28;20034;-82
2023/02/10 07:07:10;;;;;;;32.70;16.52;;;;;;;7.63;29.28;103129.75;5007603;28;20494;-77
2023/02/10 07:09:38;;;;;;;34.92;16.17;;;;;;;6.76;30.63;103130.59;5025687;28;20037;-79
2023/02/10 07:12:05;;;;;;;32.40;15.88;;;;;;;6.90;30.38;103133.44;4990139;28;20145;-81
2023/02/10 07:14:30;;;;;;;29.58;15.80;;;;;;;7.49;30.37;103143.84;5030028;28;20084;-80
2023/02/10 07:16:56;;;;;;;32.70;15.30;;;;;;;9.16;27.94;103144.44;5008034;28;20033;-82
2023/02/10 07:19:23;;;;;;;35.60;16.25;;;;;;;9.17;27.62;103136.28;5016476;28;20054;-81
2023/02/10 07:21:50;;;;;;;32.70;14.43;;;;;;;8.95;28.22;103136.69;5020636;28;20065;-82
2023/02/10 07:24:16;;;;;;;34.08;15.10;;;;;;;9.04;28.35;103135.28;5000772;28;20046;-81
2023/02/10 07:26:43;;;;;;;32.30;15.55;;;;;;;8.90;28.09;103143.25;4976869;28;20045;-85
2023/02/10 07:29:10;;;;;;;38.75;14.93;;;;;;;9.24;27.65;103142.16;4983751;28;20053;-80
2023/02/10 07:31:37;;;;;;;25.77;14.65;;;;;;;8.78;28.11;103148.41;5023664;28;20324;-82
2023/02/10 07:34:03;;;;;;;29.98;15.05;;;;;;;10.06;26.51;103129.94;5008248;28;20073;-86
2023/02/10 07:36:28;;;;;;;34.75;17.35;;;;;;;9.89;26.41;103122.97;4986439;28;20033;-79
2023/02/10 07:38:54;;;;;;;37.95;17.45;;;;;;;10.18;25.83;103136.38;5013802;28;20047;-82
2023/02/10 07:41:23;;;;;;;43.33;18.02;;;;;;;9.23;27.33;103143.97;5025518;28;20191;-84
2023/02/10 07:43:48;;;;;;;34.90;16.65;;;;;;;8.15;28.31;103140.34;5022019;28;20065;-82
2023/02/10 07:46:15;;;;;;;35.10;16.55;;;;;;;7.58;29.57;103146.06;5019768;28;20064;-81
2023/02/10 07:48:41;;;;;;;36.97;16.95;;;;;;;6.36;31.23;103135.22;5018037;28;20060;-81
2023/02/10 07:51:08;;;;;;;35.87;15.17;;;;;;;5.89;32.25;103116.91;5019399;28;20061;-81
2023/02/10 07:53:38;;;;;;;36.13;14.45;;;;;;;6.02;31.79;103139.47;5011405;28;20060;-84
2023/02/10 07:56:05;;;;;;;37.75;14.80;;;;;;;5.66;32.59;103121.47;4997240;28;20151;-82
2023/02/10 07:58:31;;;;;;;40.53;14.60;;;;;;;6.47;31.80;103122.22;4987745;28;20247;-84
2023/02/10 08:00:58;;;;;;;27.15;12.93;;;;;;;7.07;30.44;103108.56;4965649;28;20474;-83
2023/02/10 08:03:25;;;;;;;35.83;14.02;;;;;;;5.62;32.80;103141.25;5013665;28;20041;-81
2023/02/10 08:05:51;;;;;;;31.20;13.23;;;;;;;5.41;33.37;103145.72;5021456;28;20413;-83
2023/02/10 08:08:17;;;;;;;30.88;12.68;;;;;;;4.96;34.00;103149.38;5011864;28;20038;-78
2023/02/10 08:10:43;;;;;;;29.75;12.55;;;;;;;4.68;34.54;103147.00;5018905;28;20502;-82
2023/02/10 08:13:09;;;;;;;;;;;;;;;5.02;34.13;103145.63;5015098;28;20135;-82
2023/02/10 08:15:37;;;;;;;23.85;11.32;;;;;;;5.18;34.01;103152.03;5000210;28;19917;-82
2023/02/10 08:18:03;;;;;;;30.77;11.38;;;;;;;5.56;33.24;103152.19;5008672;28;20045;-84
2023/02/10 08:20:28;;;;;;;30.23;11.45;;;;;;;5.70;32.96;103155.09;5002765;28;20043;-82
2023/02/10 08:22:55;;;;;;;26.35;12.48;;;;;;;7.42;31.03;103121.03;5022703;28;20050;-84
2023/02/10 08:25:20;;;;;;;;;;;;;;;7.83;29.89;103150.97;5023244;28;20033;-81
2023/02/10 08:27:46;;;;;;;29.20;11.48;;;;;;;7.77;29.81;103141.47;5023125;28;19913;-83
2023/02/10 08:30:12;;;;;;;29.77;12.23;;;;;;;9.31;28.39;103154.25;5001317;28;20029;-86
2023/02/10 08:32:37;;;;;;;32.42;12.48;;;;;;;9.23;27.74;103135.91;5008536;28;20127;-80
2023/02/10 08:35:03;;;;;;;22.33;12.77;;;;;;;9.89;26.92;103131.88;5028678;28;20110;-83
2023/02/10 08:37:29;;;;;;;25.60;13.50;;;;;;;11.62;24.30;103121.34;5021980;28;20050;-88
2023/02/10 08:40:04;;;;;;;22.23;8.25;;;;;;;12.93;22.49;103133.47;5011285;28;20049;-83
2023/02/10 08:42:29;;;;;;;20.63;6.68;;;;;;;14.50;19.91;103117.38;5020909;28;20133;-85
2023/02/10 08:44:56;;;;;;;14.35;6.10;;;;;;;14.90;19.39;103097.84;5018156;28;20041;-84
2023/02/10 08:47:23;;;;;;;11.57;4.43;;;;;;;13.34;19.80;103110.53;5002500;28;20114;-90
2023/02/10 08:49:49;;;;;;;6.45;3.80;;;;;;;13.57;19.49;103123.09;4989705;28;20034;-85
2023/02/10 08:52:24;;;;;;;12.60;4.03;;;;;;;14.48;18.90;103123.91;5005862;28;20100;-86
2023/02/10 08:54:49;;;;;;;13.85;4.32;;;;;;;15.08;18.30;103121.66;4995637;28;20038;-79
2023/02/10 08:57:16;;;;;;;;;;;;;;;17.14;17.06;103119.53;4983777;28;20038;-80
2023/02/10 08:59:41;;;;;;;12.90;4.70;;;;;;;17.56;15.63;103124.59;5008216;28;19936;-83
2023/02/10 09:02:06;;;;;;;;;;;;;;;17.67;15.63;103122.56;4996316;28;20038;-80
2023/02/10 09:04:34;;;;;;;11.82;5.00;;;;;;;18.78;15.26;103109.00;5006857;28;20011;-83
2023/02/10 09:07:00;;;;;;;13.63;5.28;;;;;;;18.66;14.58;103107.44;5006481;28;20119;-81
2023/02/10 09:09:27;;;;;;;11.13;4.43;;;;;;;17.43;15.29;103093.16;4983616;28;20046;-85
2023/02/10 09:11:58;;;;;;;9.00;4.75;;;;;;;19.27;14.46;103103.06;4996717;28;20038;-86
2023/02/10 09:14:23;;;;;;;14.38;4.75;;;;;;;18.36;14.85;103109.53;5018583;28;20188;-83
2023/02/10 09:16:50;;;;;;;9.80;3.95;;;;;;;19.96;13.91;103096.69;5001103;28;20070;-80
2023/02/10 09:19:16;;;;;;;11.63;4.47;;;;;;;20.84;13.05;103084.47;4997519;28;20070;-78
2023/02/10 09:21:45;;;;;;;10.95;3.92;;;;;;;20.81;12.84;103080.19;5004806;28;20133;-89
2023/02/10 09:24:10;;;;;;;9.63;5.90;;;;;;;20.33;12.67;103097.34;4994424;28;20030;-81
2023/02/10 09:26:37;;;;;;;12.02;4.45;;;;;;;20.90;12.54;103089.22;4995081;28;20039;-82
2023/02/10 09:29:03;;;;;;;9.23;3.95;;;;;;;20.11;12.24;103094.19;4996347;28;20413;-82
2023/02/10 09:31:29;;;;;;;12.90;6.60;;;;;;;21.39;11.48;103078.25;4995690;28;20053;-83
2023/02/10 09:33:54;;;;;;;10.75;5.57;;;;;;;22.46;11.09;103086.91;4992242;28;20133;-85
2023/02/10 09:36:22;;;;;;;8.20;3.92;;;;;;;22.01;10.90;103088.53;5000812;28;20109;-83
2023/02/10 09:38:49;;;;;;;9.27;4.05;;;;;;;22.61;10.53;103083.38;5022008;28;20037;-84
2023/02/10 09:41:47;;;;;;;7.90;4.32;;;;;;;22.62;10.33;103080.47;4994088;28;20044;-81
2023/02/10 09:44:23;;;;;;;12.05;4.28;;;;;;;23.62;10.24;103076.63;4990613;28;20060;-79
2023/02/10 09:46:58;;;;;;;;;;;;;;;21.97;10.67;103078.09;5002247;28;20123;-83
2023/02/10 09:50:00;;;;;;;5.68;3.40;;;;;;;22.19;10.14;103073.69;5025319;28;19925;-88
2023/02/10 09:52:52;;;;;;;7.25;3.97;;;;;;;23.13;10.22;103075.28;5014659;28;20120;-86
2023/02/10 09:55:35;;;;;;;9.50;4.40;;;;;;;24.18;10.03;103057.72;5013889;28;21457;-82
2023/02/10 09:58:01;;;;;;;10.40;4.72;;;;;;;23.95;9.58;103054.28;4999138;28;20117;-79
2023/02/10 10:00:29;;;;;;;12.38;4.22;;;;;;;24.78;9.65;103044.63;5019091;28;20477;-78
2023/02/10 10:02:55;;;;;;;13.57;4.63;;;;;;;24.98;9.03;103050.31;4984549;28;20034;-80
2023/02/10 10:05:37;;;;;;;6.75;4.20;;;;;;;25.79;8.53;103049.75;5004820;28;20033;-81
2023/02/10 10:08:02;;;;;;;7.13;4.07;;;;;;;24.76;8.82;103026.63;5018332;28;20060;-77
2023/02/10 10:10:40;;;;;;;9.27;4.20;;;;;;;24.96;9.00;103035.88;5028000;28;20033;-79
2023/02/10 10:13:43;;;;;;;9.57;4.15;;;;;;;24.23;8.76;103035.16;5002887;28;20091;-78
2023/02/10 10:16:27;;;;;;;10.27;4.25;;;;;;;23.62;8.83;103031.84;5007099;28;20049;-80
2023/02/10 10:19:30;;;;;;;14.35;4.78;;;;;;;24.72;8.38;103028.91;5006977;28;20038;-81
2023/02/10 10:22:22;;;;;;;12.60;4.43;;;;;;;23.73;8.94;103028.63;5016430;28;20042;-77
2023/02/10 10:25:26;;;;;;;10.43;4.78;;;;;;;23.79;9.06;103022.41;5004411;28;20054;-81
2023/02/10 10:28:31;;;;;;;11.63;3.92;;;;;;;24.42;8.43;103018.03;4950509;28;20039;-82
2023/02/10 10:31:15;;;;;;;12.48;4.60;;;;;;;22.47;9.19;103014.59;5011402;28;20172;-83
2023/02/10 10:33:53;;;;;;;7.90;3.65;;;;;;;22.75;9.29;102992.94;5013303;28;20449;-81
2023/02/10 10:36:27;;;;;;;8.00;3.85;;;;;;;20.90;10.16;103006.38;5002119;28;20037;-82
2023/02/10 10:38:54;;;;;;;8.98;3.67;;;;;;;21.16;10.47;103006.13;5002430;28;20490;-84
2023/02/10 10:41:22;;;;;;;7.70;3.85;;;;;;;22.39;10.03;103005.63;5021899;28;20117;-83
2023/02/10 10:43:50;;;;;;;10.63;4.47;;;;;;;22.85;9.63;102981.75;5002217;28;20037;-83
2023/02/10 10:46:21;;;;;;;6.88;4.30;;;;;;;22.87;9.54;103001.56;5010389;28;21714;-82
2023/02/10 10:48:46;;;;;;;7.15;3.47;;;;;;;21.79;10.14;102994.31;5021660;28;20042;-82
2023/02/10 10:51:16;;;;;;;6.95;3.42;;;;;;;22.74;9.95;102990.41;4981007;28;20045;-79
2023/02/10 10:53:47;;;;;;;7.70;4.13;;;;;;;22.43;10.10;102971.31;5004025;28;20045;-81
2023/02/10 10:56:47;;;;;;;13.18;4.47;;;;;;;23.24;9.90;102986.13;5016664;28;20026;-83
2023/02/10 10:59:35;;;;;;;15.43;4.00;;;;;;;23.54;9.44;102980.66;4985809;28;20037;-84
2023/02/10 11:02:19;;;;;;;10.93;4.75;;;;;;;23.50;9.84;102968.34;5031972;28;20477;-86
2023/02/10 11:04:48;;;;;;;9.32;4.65;;;;;;;23.23;9.50;102978.13;5034959;28;20053;-87
2023/02/10 11:07:19;;;;;;;7.45;4.15;;;;;;;21.63;10.14;102970.63;5027136;28;20048;-88
2023/02/10 11:10:03;;;;;;;8.02;3.65;;;;;;;21.83;10.43;102956.47;5004911;28;20092;-87
2023/02/10 11:12:33;;;;;;;6.03;3.65;;;;;;;22.47;10.26;102961.69;5021609;28;20052;-89
2023/02/10 11:15:01;;;;;;;13.73;3.60;;;;;;;21.37;10.25;102959.06;5042131;28;20552;-89
2023/02/10 11:17:34;;;;;;;7.30;4.18;;;;;;;20.01;11.03;102946.03;5021927;28;20085;-84
2023/02/10 11:20:15;;;;;;;11.68;4.20;;;;;;;19.83;11.95;102965.28;5033241;28;20057;-86
2023/02/10 11:22:42;;;;;;;9.60;5.28;;;;;;;18.52;12.45;102950.88;5034379;28;20037;-83
2023/02/10 11:25:25;;;;;;;7.95;4.25;;;;;;;20.11;11.41;102951.31;5026179;28;20038;-84
2023/02/10 11:27:54;;;;;;;8.05;4.10;;;;;;;19.87;11.94;102944.81;5023024;28;20034;-87
2023/02/10 11:30:31;;;;;;;12.85;4.22;;;;;;;20.14;11.82;102951.84;5042046;28;20049;-87